Time;durP1;ratioP1;P1;durP2;ratioP2;P2;SDS_P1;SDS_P2;PMS_P1;PMS_P2;Temp;Humidity;BMP_temperature;BMP_pressure;BME280_temperature;BME280_humidity;BME280_pressure;Samples;Min_cycle;Max_cycle;Signal;HPM_P1;HPM_P2
2023/01/02 00:01:55;;;;;;;1.70;1.60;;;;;;;;;;5033428;28;20455;-76
2023/01/02 00:04:24;;;;;;;2.30;1.97;;;;;;;;;;5032947;28;20849;-75
2023/01/02 00:06:51;;;;;;;3.30;1.90;;;;;;;;;;5033373;28;20450;-77
2023/01/02 00:09:18;;;;;;;1.63;1.53;;;;;;;;;;5032306;28;20496;-76
2023/01/02 00:11:45;;;;;;;2.30;2.10;;;;;;;;;;5031948;28;20458;-77
2023/01/02 00:14:12;;;;;;;3.20;2.20;;;;;;;;;;5031901;28;20457;-76
2023/01/02 00:16:39;;;;;;;2.83;2.00;;;;;;;;;;5031509;28;20451;-76
2023/01/02 00:19:07;;;;;;;3.47;1.80;;;;;;;;;;5032068;28;20466;-76
2023/01/02 00:21:35;;;;;;;2.90;2.13;;;;;;;;;;5032056;28;20482;-77
2023/01/02 00:24:02;;;;;;;2.17;2.00;;;;;;;;;;5031504;28;20449;-75
2023/01/02 00:26:30;;;;;;;2.50;1.87;;;;;;;;;;5031857;28;20466;-76
2023/01/02 00:28:57;;;;;;;2.40;2.20;;;;;;;;;;5031985;28;20470;-76
2023/01/02 00:31:24;;;;;;;3.83;2.40;;;;;;;;;;5031804;28;20446;-77
2023/01/02 00:33:51;;;;;;;2.13;1.80;;;;;;;;;;5031575;28;20451;-76
2023/01/02 00:36:18;;;;;;;4.40;2.00;;;;;;;;;;5031517;28;20477;-75
2023/01/02 00:38:48;;;;;;;2.57;1.90;;;;;;;;;;5030430;28;21077;-76
2023/01/02 00:41:15;;;;;;;3.17;2.33;;;;;;;;;;5031483;28;20852;-77
2023/01/02 00:43:42;;;;;;;3.40;3.20;;;;;;;;;;5031798;28;20529;-76
2023/01/02 00:46:09;;;;;;;4.00;3.70;;;;;;;;;;5031930;28;20478;-77
2023/01/02 00:48:38;;;;;;;4.90;3.50;;;;;;;;;;5031737;28;20467;-77
2023/01/02 00:51:05;;;;;;;5.50;4.00;;;;;;;;;;5031766;28;20446;-76
2023/01/02 00:53:32;;;;;;;6.10;4.20;;;;;;;;;;5031007;28;20828;-76
2023/01/02 00:56:00;;;;;;;5.00;3.90;;;;;;;;;;5031337;28;20446;-76
2023/01/02 00:58:27;;;;;;;4.30;4.00;;;;;;;;;;5031760;28;20905;-77
2023/01/02 01:00:54;;;;;;;4.87;4.10;;;;;;;;;;5031323;28;20477;-77
2023/01/02 01:03:21;;;;;;;8.50;5.13;;;;;;;;;;5031144;28;20449;-76
2023/01/02 01:05:48;;;;;;;5.60;5.10;;;;;;;;;;5031035;28;20442;-76
2023/01/02 01:08:15;;;;;;;5.13;4.40;;;;;;;;;;5031288;28;20474;-76
2023/01/02 01:10:42;;;;;;;4.47;4.07;;;;;;;;;;5031123;28;20442;-76
2023/01/02 01:13:11;;;;;;;5.07;4.30;;;;;;;;;;5031001;28;20450;-76
2023/01/02 01:15:38;;;;;;;5.40;3.90;;;;;;;;;;5031024;28;20457;-75
2023/01/02 01:18:05;;;;;;;5.03;4.57;;;;;;;;;;5030717;28;20501;-78
2023/01/02 01:20:32;;;;;;;4.70;4.30;;;;;;;;;;5030978;28;20481;-75
2023/01/02 01:22:59;;;;;;;4.90;4.40;;;;;;;;;;5033622;28;20457;-76
2023/01/02 01:25:26;;;;;;;5.30;4.80;;;;;;;;;;5036671;28;20440;-76
2023/01/02 01:27:54;;;;;;;4.93;3.90;;;;;;;;;;5036010;28;20791;-76
2023/01/02 01:30:22;;;;;;;4.93;4.53;;;;;;;;;;5032719;28;20974;-77
2023/01/02 01:32:49;;;;;;;9.60;5.27;;;;;;;;;;5030321;28;20910;-77
2023/01/02 01:35:16;;;;;;;6.13;4.70;;;;;;;;;;5030528;28;20443;-77
2023/01/02 01:37:43;;;;;;;5.70;4.30;;;;;;;;;;5030570;28;20970;-77
2023/01/02 01:40:10;;;;;;;7.20;5.13;;;;;;;;;;5030449;28;21040;-76
2023/01/02 01:42:37;;;;;;;4.83;4.43;;;;;;;;;;5030226;28;20454;-77
2023/01/02 01:45:12;;;;;;;6.80;4.23;;;;;;;;;;5030559;28;20820;-76
2023/01/02 01:47:42;;;;;;;5.13;4.00;;;;;;;;;;5030309;28;20470;-76
2023/01/02 01:50:12;;;;;;;4.30;3.90;;;;;;;;;;5030549;28;20453;-76
2023/01/02 01:52:41;;;;;;;3.73;3.43;;;;;;;;;;5030215;28;20454;-77
2023/01/02 01:55:10;;;;;;;7.23;4.47;;;;;;;;;;5030359;28;20442;-75
2023/01/02 01:57:38;;;;;;;4.67;4.20;;;;;;;;;;5030093;28;20839;-76
2023/01/02 02:00:07;;;;;;;4.57;4.27;;;;;;;;;;5030309;28;20442;-76
2023/01/02 02:02:34;;;;;;;6.47;4.30;;;;;;;;;;5030097;28;20457;-76
2023/01/02 02:05:04;;;;;;;4.93;4.53;;;;;;;;;;5030417;28;20521;-76
2023/01/02 02:07:31;;;;;;;5.87;4.50;;;;;;;;;;5030192;28;20454;-76
2023/01/02 02:10:02;;;;;;;4.77;3.97;;;;;;;;;;5030461;28;20446;-76
2023/01/02 02:12:30;;;;;;;5.30;3.93;;;;;;;;;;5030424;28;20454;-76
2023/01/02 02:14:57;;;;;;;5.43;4.93;;;;;;;;;;5030073;28;20447;-76
2023/01/02 02:17:28;;;;;;;4.90;4.40;;;;;;;;;;5030024;28;20474;-76
2023/01/02 02:20:07;;;;;;;5.37;4.23;;;;;;;;;;5030122;28;20435;-76
2023/01/02 02:22:42;;;;;;;4.50;4.10;;;;;;;;;;5029947;28;20477;-76
2023/01/02 02:25:33;;;;;;;4.90;4.40;;;;;;;;;;5030090;28;20439;-75
2023/01/02 02:28:14;;;;;;;5.00;4.60;;;;;;;;;;5025289;28;20482;-76
2023/01/02 02:30:47;;;;;;;5.90;4.70;;;;;;;;;;5038830;28;20426;-75
2023/01/02 02:33:19;;;;;;;5.10;4.60;;;;;;;;;;5031233;28;20431;-77
2023/01/02 02:35:52;;;;;;;5.37;4.60;;;;;;;;;;5030256;28;20894;-77
2023/01/02 02:38:22;;;;;;;5.50;4.60;;;;;;;;;;5031216;28;20485;-75
2023/01/02 02:40:52;;;;;;;6.73;6.07;;;;;;;;;;5034344;28;20482;-75
2023/01/02 02:43:24;;;;;;;5.43;4.93;;;;;;;;;;5052798;28;20402;-75
2023/01/02 02:45:55;;;;;;;5.00;4.60;;;;;;;;;;5045676;28;20430;-76
2023/01/02 02:48:27;;;;;;;10.80;5.67;;;;;;;;;;5046546;28;20493;-76
2023/01/02 02:50:57;;;;;;;6.93;4.80;;;;;;;;;;5055718;28;20442;-76
2023/01/02 02:53:25;;;;;;;7.70;5.10;;;;;;;;;;5039736;28;20484;-77
2023/01/02 02:55:53;;;;;;;5.97;5.27;;;;;;;;;;5033916;28;20438;-76
2023/01/02 02:58:22;;;;;;;6.27;5.00;;;;;;;;;;5033306;28;20548;-76
2023/01/02 03:00:49;;;;;;;5.83;5.23;;;;;;;;;;5033891;28;20528;-77
2023/01/02 03:03:19;;;;;;;5.53;4.63;;;;;;;;;;5033503;28;20446;-75
2023/01/02 03:05:53;;;;;;;5.47;4.67;;;;;;;;;;5033329;28;20453;-76
2023/01/02 03:08:23;;;;;;;6.23;4.73;;;;;;;;;;5037687;28;20462;-76
2023/01/02 03:10:52;;;;;;;5.43;4.93;;;;;;;;;;5073084;28;20531;-75
2023/01/02 03:13:24;;;;;;;4.73;4.33;;;;;;;;;;5073275;28;20436;-77
2023/01/02 03:15:53;;;;;;;6.80;4.90;;;;;;;;;;5073280;28;20892;-75
2023/01/02 03:18:26;;;;;;;4.80;4.30;;;;;;;;;;5072755;28;21152;-76
2023/01/02 03:20:58;;;;;;;4.80;4.27;;;;;;;;;;5072884;28;20468;-76
2023/01/02 03:23:27;;;;;;;4.63;4.23;;;;;;;;;;5072777;28;20448;-76
2023/01/02 03:25:54;;;;;;;5.20;4.80;;;;;;;;;;5072944;28;20448;-76
2023/01/02 03:28:23;;;;;;;6.63;4.63;;;;;;;;;;5072635;28;21010;-76
2023/01/02 03:30:53;;;;;;;7.20;4.17;;;;;;;;;;5073782;28;20440;-76
2023/01/02 03:33:21;;;;;;;3.80;3.27;;;;;;;;;;5072983;28;20441;-76
2023/01/02 03:35:50;;;;;;;5.40;4.07;;;;;;;;;;5072751;28;20449;-75
2023/01/02 03:38:20;;;;;;;5.10;3.70;;;;;;;;;;5073161;28;20558;-77
2023/01/02 03:40:50;;;;;;;3.20;2.73;;;;;;;;;;5073477;28;21007;-76
2023/01/02 03:43:18;;;;;;;3.33;2.90;;;;;;;;;;5073259;28;20441;-76
2023/01/02 03:45:48;;;;;;;5.40;2.50;;;;;;;;;;5072801;28;20939;-76
2023/01/02 03:48:18;;;;;;;4.20;2.50;;;;;;;;;;5072857;28;20467;-77
2023/01/02 03:50:47;;;;;;;6.97;2.87;;;;;;;;;;5072667;28;20421;-77
2023/01/02 03:53:15;;;;;;;2.83;2.37;;;;;;;;;;5072556;28;20474;-78
2023/01/02 03:55:44;;;;;;;2.47;2.27;;;;;;;;;;5072552;28;20448;-77
2023/01/02 03:58:16;;;;;;;2.33;2.20;;;;;;;;;;5072242;28;20464;-77
2023/01/02 04:00:45;;;;;;;2.60;2.23;;;;;;;;;;5071902;28;20963;-76
2023/01/02 04:03:15;;;;;;;2.00;1.70;;;;;;;;;;5072020;28;20445;-76
2023/01/02 04:05:45;;;;;;;2.60;2.30;;;;;;;;;;5072353;28;20421;-76
2023/01/02 04:08:14;;;;;;;2.20;1.97;;;;;;;;;;5072273;28;20469;-76
2023/01/02 04:10:44;;;;;;;2.23;2.00;;;;;;;;;;5071920;28;20540;-77
2023/01/02 04:13:13;;;;;;;2.70;1.73;;;;;;;;;;5072868;28;20432;-75
2023/01/02 04:15:42;;;;;;;2.33;2.13;;;;;;;;;;5073778;28;20448;-75
2023/01/02 04:18:10;;;;;;;2.10;1.90;;;;;;;;;;5074292;28;20495;-76
2023/01/02 04:20:40;;;;;;;2.60;2.20;;;;;;;;;;5071993;28;20477;-77
2023/01/02 04:23:09;;;;;;;2.00;1.73;;;;;;;;;;5071559;28;20439;-76
2023/01/02 04:25:39;;;;;;;6.30;2.03;;;;;;;;;;5072235;28;20452;-77
2023/01/02 04:28:10;;;;;;;3.37;1.90;;;;;;;;;;5076188;28;20480;-77
2023/01/02 04:30:40;;;;;;;4.57;2.60;;;;;;;;;;5075711;28;20809;-76
2023/01/02 04:33:08;;;;;;;2.93;1.80;;;;;;;;;;5074416;28;20931;-76
2023/01/02 04:35:35;;;;;;;2.53;1.80;;;;;;;;;;5073667;28;20452;-76
2023/01/02 04:38:06;;;;;;;4.03;2.27;;;;;;;;;;5072229;28;20487;-77
2023/01/02 04:40:36;;;;;;;2.80;2.13;;;;;;;;;;5071145;28;20900;-76
2023/01/02 04:43:03;;;;;;;3.33;2.20;;;;;;;;;;5070996;28;21008;-77
2023/01/02 04:45:32;;;;;;;2.33;2.10;;;;;;;;;;5072018;28;20452;-76
2023/01/02 04:47:59;;;;;;;2.60;2.10;;;;;;;;;;5071164;28;21196;-76
2023/01/02 04:50:26;;;;;;;2.37;1.80;;;;;;;;;;5071500;28;20481;-77
2023/01/02 04:52:53;;;;;;;3.80;2.13;;;;;;;;;;5071212;28;20452;-75
2023/01/02 04:55:20;;;;;;;2.40;2.07;;;;;;;;;;5070917;28;20924;-77
2023/01/02 04:57:47;;;;;;;3.43;2.17;;;;;;;;;;5071038;28;20514;-77
2023/01/02 05:00:14;;;;;;;2.10;1.90;;;;;;;;;;5071147;28;20448;-75
2023/01/02 05:02:42;;;;;;;2.90;2.00;;;;;;;;;;5070329;28;20480;-76
2023/01/02 05:05:10;;;;;;;2.30;2.10;;;;;;;;;;5070909;28;20460;-77
2023/01/02 05:07:38;;;;;;;1.90;1.80;;;;;;;;;;5070685;28;21000;-76
2023/01/02 05:10:05;;;;;;;2.40;1.93;;;;;;;;;;5070842;28;20448;-77
2023/01/02 05:12:33;;;;;;;3.33;2.00;;;;;;;;;;5070904;28;20449;-77
2023/01/02 05:15:00;;;;;;;2.40;2.20;;;;;;;;;;5071018;28;20611;-76
2023/01/02 05:17:27;;;;;;;2.63;2.13;;;;;;;;;;5070669;28;20495;-76
2023/01/02 05:19:56;;;;;;;5.53;2.37;;;;;;;;;;5070383;28;20494;-76
2023/01/02 05:25:08;;;;;;;3.13;2.53;;;;;;;;;;5075048;28;20500;-78
2023/01/02 05:27:35;;;;;;;3.20;2.17;;;;;;;;;;5071159;28;20567;-76
2023/01/02 05:30:02;;;;;;;4.43;2.40;;;;;;;;;;5070678;28;20441;-75
2023/01/02 05:32:29;;;;;;;3.50;2.27;;;;;;;;;;5070343;28;20467;-75
2023/01/02 05:34:58;;;;;;;2.70;2.50;;;;;;;;;;5070751;28;20444;-77
2023/01/02 05:37:25;;;;;;;3.67;2.40;;;;;;;;;;5075680;28;20476;-75
2023/01/02 05:39:52;;;;;;;2.40;2.20;;;;;;;;;;5074345;28;20444;-75
2023/01/02 05:42:19;;;;;;;5.00;2.70;;;;;;;;;;5073170;28;20502;-75
2023/01/02 05:44:46;;;;;;;4.60;3.17;;;;;;;;;;5074903;28;20452;-76
2023/01/02 05:47:13;;;;;;;4.00;3.30;;;;;;;;;;5072306;28;20890;-75
2023/01/02 05:49:40;;;;;;;4.30;3.00;;;;;;;;;;5070649;28;20449;-76
2023/01/02 05:52:08;;;;;;;3.90;3.37;;;;;;;;;;5070526;28;20440;-77
2023/01/02 05:54:35;;;;;;;8.20;3.93;;;;;;;;;;5070195;28;20452;-76
2023/01/02 05:57:02;;;;;;;4.03;3.73;;;;;;;;;;5069993;28;20441;-76
2023/01/02 05:59:29;;;;;;;4.87;4.37;;;;;;;;;;5070297;28;20448;-78
2023/01/02 06:01:56;;;;;;;7.83;5.00;;;;;;;;;;5069919;28;21041;-77
2023/01/02 06:04:23;;;;;;;4.00;3.70;;;;;;;;;;5069852;28;20452;-76
2023/01/02 06:06:50;;;;;;;5.30;3.63;;;;;;;;;;5070043;28;20543;-77
2023/01/02 06:09:19;;;;;;;4.03;3.23;;;;;;;;;;5070098;28;20448;-77
2023/01/02 06:11:46;;;;;;;3.70;3.40;;;;;;;;;;5070385;28;20498;-77
2023/01/02 06:14:13;;;;;;;3.43;3.10;;;;;;;;;;5069095;28;20440;-77
2023/01/02 06:16:40;;;;;;;3.60;3.20;;;;;;;;;;5070169;28;20932;-76
2023/01/02 06:19:07;;;;;;;7.33;4.10;;;;;;;;;;5070169;28;20468;-78
2023/01/02 06:21:34;;;;;;;3.93;3.53;;;;;;;;;;5069801;28;20484;-77
2023/01/02 06:24:02;;;;;;;5.80;4.30;;;;;;;;;;5069514;28;21009;-77
2023/01/02 06:26:30;;;;;;;5.57;5.07;;;;;;;;;;5069832;28;20948;-77
2023/01/02 06:28:57;;;;;;;5.30;4.80;;;;;;;;;;5069928;28;20468;-76
2023/01/02 06:31:26;;;;;;;7.73;7.00;;;;;;;;;;5069938;28;20510;-76
2023/01/02 06:33:56;;;;;;;7.60;6.33;;;;;;;;;;5069311;28;20441;-76
2023/01/02 06:36:23;;;;;;;8.83;6.80;;;;;;;;;;5070200;28;20444;-77
2023/01/02 06:38:50;;;;;;;7.93;4.90;;;;;;;;;;5069630;28;20473;-76
2023/01/02 06:41:17;;;;;;;7.30;5.53;;;;;;;;;;5069709;28;20811;-77
2023/01/02 06:43:47;;;;;;;4.60;4.20;;;;;;;;;;5069677;28;20816;-77
2023/01/02 06:46:14;;;;;;;5.73;4.10;;;;;;;;;;5069788;28;20448;-76
2023/01/02 06:48:42;;;;;;;4.77;4.30;;;;;;;;;;5069894;28;20491;-76
2023/01/02 06:51:09;;;;;;;4.30;3.90;;;;;;;;;;5069968;28;20449;-77
2023/01/02 06:53:38;;;;;;;4.77;4.00;;;;;;;;;;5069209;28;20510;-77
2023/01/02 06:56:05;;;;;;;5.00;4.60;;;;;;;;;;5069378;28;20867;-77
2023/01/02 06:58:34;;;;;;;8.53;5.07;;;;;;;;;;5069616;28;20468;-77
2023/01/02 07:01:04;;;;;;;5.47;4.30;;;;;;;;;;5069893;28;20471;-76
2023/01/02 07:03:31;;;;;;;5.70;4.07;;;;;;;;;;5069287;28;20488;-75
2023/01/02 07:06:01;;;;;;;4.70;4.30;;;;;;;;;;5069733;28;20440;-76
2023/01/02 07:08:28;;;;;;;6.40;4.13;;;;;;;;;;5069542;28;20848;-76
2023/01/02 07:10:55;;;;;;;6.40;4.73;;;;;;;;;;5069851;28;20437;-75
2023/01/02 07:13:22;;;;;;;5.17;4.67;;;;;;;;;;5069560;28;20455;-76
2023/01/02 07:15:49;;;;;;;5.40;4.67;;;;;;;;;;5070023;28;20453;-77
2023/01/02 07:18:17;;;;;;;9.90;4.50;;;;;;;;;;5069577;28;20886;-76
2023/01/02 07:20:44;;;;;;;8.67;4.57;;;;;;;;;;5069200;28;20766;-77
2023/01/02 07:23:11;;;;;;;6.87;4.90;;;;;;;;;;5069286;28;20542;-77
2023/01/02 07:25:38;;;;;;;7.17;4.60;;;;;;;;;;5072083;28;20444;-75
2023/01/02 07:28:05;;;;;;;8.40;5.43;;;;;;;;;;5072660;28;20495;-77
2023/01/02 07:30:33;;;;;;;5.03;4.53;;;;;;;;;;5072869;28;20529;-76
2023/01/02 07:33:00;;;;;;;5.40;4.43;;;;;;;;;;5072588;28;20848;-77
2023/01/02 07:35:28;;;;;;;5.97;4.87;;;;;;;;;;5072943;28;20522;-76
2023/01/02 07:37:55;;;;;;;5.23;4.43;;;;;;;;;;5072940;28;20467;-76
2023/01/02 07:40:22;;;;;;;8.37;5.43;;;;;;;;;;5073043;28;20448;-77
2023/01/02 07:42:49;;;;;;;5.20;4.80;;;;;;;;;;5072608;28;20476;-76
2023/01/02 07:45:16;;;;;;;6.83;4.70;;;;;;;;;;5072800;28;20838;-75
2023/01/02 07:47:43;;;;;;;5.20;4.10;;;;;;;;;;5074248;28;20468;-77
2023/01/02 07:50:10;;;;;;;4.93;3.80;;;;;;;;;;5072889;28;20498;-77
2023/01/02 07:52:39;;;;;;;5.90;4.17;;;;;;;;;;5072627;28;20444;-77
2023/01/02 07:55:06;;;;;;;5.70;4.27;;;;;;;;;;5072370;28;20451;-76
2023/01/02 07:57:33;;;;;;;6.60;4.53;;;;;;;;;;5073456;28;20472;-76
2023/01/02 08:00:00;;;;;;;10.83;6.67;;;;;;;;;;5072927;28;20498;-76
2023/01/02 08:02:27;;;;;;;10.13;6.57;;;;;;;;;;5073520;28;20842;-76
2023/01/02 08:04:55;;;;;;;7.47;4.43;;;;;;;;;;5073205;28;20436;-77
2023/01/02 08:07:22;;;;;;;6.13;4.27;;;;;;;;;;5072849;28;20526;-77
2023/01/02 08:09:51;;;;;;;9.60;6.10;;;;;;;;;;5072987;28;20479;-75
2023/01/02 08:12:18;;;;;;;6.97;5.13;;;;;;;;;;5073043;28;20443;-76
2023/01/02 08:14:45;;;;;;;5.80;5.13;;;;;;;;;;5074336;28;20455;-75
2023/01/02 08:17:12;;;;;;;6.23;4.80;;;;;;;;;;5074993;28;20465;-76
2023/01/02 08:19:39;;;;;;;5.90;4.60;;;;;;;;;;5075880;28;20444;-76
2023/01/02 08:22:06;;;;;;;9.00;5.17;;;;;;;;;;5074076;28;20437;-76
2023/01/02 08:24:33;;;;;;;11.87;5.80;;;;;;;;;;5074630;28;21135;-76
2023/01/02 08:27:01;;;;;;;9.20;4.93;;;;;;;;;;5077032;28;20883;-75
2023/01/02 08:29:28;;;;;;;7.23;5.37;;;;;;;;;;5074453;28;20444;-77
2023/01/02 08:31:58;;;;;;;7.17;4.93;;;;;;;;;;5074003;28;20436;-77
2023/01/02 08:34:25;;;;;;;7.13;4.67;;;;;;;;;;5074969;28;20467;-76
2023/01/02 08:36:52;;;;;;;4.97;4.57;;;;;;;;;;5073191;28;20452;-77
2023/01/02 08:39:19;;;;;;;10.93;9.43;;;;;;;;;;5074289;28;20445;-76
2023/01/02 08:41:46;;;;;;;7.50;5.33;;;;;;;;;;5075029;28;20456;-77
2023/01/02 08:44:15;;;;;;;5.30;4.40;;;;;;;;;;5072377;28;20472;-77
2023/01/02 08:46:42;;;;;;;8.43;4.60;;;;;;;;;;5072707;28;20477;-76
2023/01/02 08:49:09;;;;;;;6.20;5.03;;;;;;;;;;5072304;28;20457;-76
2023/01/02 08:51:36;;;;;;;7.13;5.00;;;;;;;;;;5072169;28;20842;-75
2023/01/02 08:54:03;;;;;;;5.67;5.03;;;;;;;;;;5071670;28;20449;-76
2023/01/02 08:56:31;;;;;;;5.93;4.90;;;;;;;;;;5071580;28;20489;-76
2023/01/02 08:58:59;;;;;;;8.97;7.00;;;;;;;;;;5071300;28;20472;-76
2023/01/02 09:01:28;;;;;;;7.13;6.20;;;;;;;;;;5071475;28;20443;-76
2023/01/02 09:03:55;;;;;;;8.07;5.40;;;;;;;;;;5071156;28;21027;-77
2023/01/02 09:06:23;;;;;;;6.00;5.17;;;;;;;;;;5072551;28;20454;-76
2023/01/02 09:08:52;;;;;;;8.77;5.33;;;;;;;;;;5073455;28;20512;-77
2023/01/02 09:11:20;;;;;;;8.10;5.90;;;;;;;;;;5073674;28;20445;-75
2023/01/02 09:13:47;;;;;;;8.23;6.93;;;;;;;;;;5072598;28;20436;-77
2023/01/02 09:16:14;;;;;;;7.87;6.00;;;;;;;;;;5071649;28;20452;-76
2023/01/02 09:18:43;;;;;;;9.80;6.27;;;;;;;;;;5070975;28;20472;-76
2023/01/02 09:21:10;;;;;;;8.23;6.17;;;;;;;;;;5071162;28;20453;-76
2023/01/02 09:23:37;;;;;;;7.70;6.07;;;;;;;;;;5070775;28;20503;-76
2023/01/02 09:26:05;;;;;;;9.67;5.90;;;;;;;;;;5070730;28;20451;-76
2023/01/02 09:28:32;;;;;;;6.60;5.77;;;;;;;;;;5070865;28;20457;-76
2023/01/02 09:30:59;;;;;;;10.03;6.10;;;;;;;;;;5070767;28;20510;-77
2023/01/02 09:33:26;;;;;;;7.10;6.07;;;;;;;;;;5070343;28;20440;-77
2023/01/02 09:35:55;;;;;;;9.63;6.40;;;;;;;;;;5054748;28;20430;-77
2023/01/02 09:38:22;;;;;;;8.70;6.80;;;;;;;;;;5049334;28;20986;-77
2023/01/02 09:40:51;;;;;;;6.83;6.03;;;;;;;;;;5050728;28;20444;-77
2023/01/02 09:43:19;;;;;;;9.77;6.20;;;;;;;;;;5050033;28;20492;-76
2023/01/02 09:45:46;;;;;;;9.20;8.10;;;;;;;;;;5050793;28;20442;-77
2023/01/02 09:48:16;;;;;;;9.77;6.43;;;;;;;;;;5050357;28;20464;-77
2023/01/02 09:50:44;;;;;;;8.37;6.30;;;;;;;;;;5050026;28;20445;-77
2023/01/02 09:53:12;;;;;;;7.13;6.00;;;;;;;;;;5035992;28;20439;-78
2023/01/02 09:55:44;;;;;;;7.90;6.20;;;;;;;;;;5030474;28;20948;-76
2023/01/02 09:58:16;;;;;;;8.90;6.57;;;;;;;;;;5031007;28;20524;-76
2023/01/02 10:00:44;;;;;;;7.67;5.47;;;;;;;;;;5030736;28;20427;-76
2023/01/02 10:03:17;;;;;;;8.90;6.50;;;;;;;;;;5030141;28;20478;-76
2023/01/02 10:05:59;;;;;;;10.07;6.20;;;;;;;;;;5030550;28;20917;-76
2023/01/02 10:08:31;;;;;;;6.37;4.90;;;;;;;;;;5031457;28;21137;-76
2023/01/02 10:11:02;;;;;;;7.80;5.00;;;;;;;;;;5031310;28;20438;-76
2023/01/02 10:13:34;;;;;;;5.23;4.50;;;;;;;;;;5031298;28;20756;-77
2023/01/02 10:16:02;;;;;;;8.93;6.50;;;;;;;;;;5031341;28;20446;-76
2023/01/02 10:18:30;;;;;;;7.67;5.17;;;;;;;;;;5031254;28;20524;-76
2023/01/02 10:21:00;;;;;;;10.30;5.93;;;;;;;;;;5030908;28;20454;-77
2023/01/02 10:23:30;;;;;;;7.70;5.13;;;;;;;;;;5031399;28;20478;-76
2023/01/02 10:25:59;;;;;;;8.70;4.80;;;;;;;;;;5047812;28;20515;-75
2023/01/02 10:28:28;;;;;;;6.60;4.37;;;;;;;;;;5050318;28;20473;-77
2023/01/02 10:30:59;;;;;;;6.67;3.27;;;;;;;;;;5050922;28;20448;-78
2023/01/02 10:33:29;;;;;;;6.33;3.30;;;;;;;;;;5050661;28;20960;-76
2023/01/02 10:35:58;;;;;;;11.33;3.40;;;;;;;;;;5050543;28;20976;-76
2023/01/02 10:38:27;;;;;;;3.57;2.67;;;;;;;;;;5050878;28;20469;-76
2023/01/02 10:40:55;;;;;;;10.90;2.80;;;;;;;;;;5050818;28;20445;-76
2023/01/02 10:43:23;;;;;;;3.97;2.90;;;;;;;;;;5050200;28;20980;-76
2023/01/02 10:45:50;;;;;;;4.20;2.77;;;;;;;;;;5050243;28;20453;-76
2023/01/02 10:48:17;;;;;;;6.47;2.80;;;;;;;;;;5050399;28;20623;-75
2023/01/02 10:50:47;;;;;;;4.13;2.77;;;;;;;;;;5050607;28;20441;-77
2023/01/02 10:53:20;;;;;;;3.60;2.30;;;;;;;;;;5049818;28;20499;-77
2023/01/02 10:55:47;;;;;;;3.17;2.40;;;;;;;;;;5050539;28;20781;-74
2023/01/02 10:58:19;;;;;;;3.47;2.40;;;;;;;;;;5050606;28;20469;-76
2023/01/02 11:00:46;;;;;;;5.00;2.77;;;;;;;;;;5053413;28;20426;-76
2023/01/02 11:03:15;;;;;;;7.70;3.03;;;;;;;;;;5054496;28;20477;-77
2023/01/02 11:05:46;;;;;;;5.30;2.43;;;;;;;;;;5054729;28;20440;-76
2023/01/02 11:08:15;;;;;;;4.03;2.97;;;;;;;;;;5055096;28;20464;-76
2023/01/02 11:10:42;;;;;;;2.70;2.50;;;;;;;;;;5054684;28;20434;-76
2023/01/02 11:13:10;;;;;;;4.90;3.20;;;;;;;;;;5058349;28;20487;-77
2023/01/02 11:15:45;;;;;;;3.27;2.97;;;;;;;;;;5054063;28;20487;-77
2023/01/02 11:18:18;;;;;;;3.47;2.40;;;;;;;;;;5054044;28;20606;-77
2023/01/02 11:20:48;;;;;;;5.60;4.97;;;;;;;;;;5054122;28;20426;-77
2023/01/02 11:23:18;;;;;;;5.77;2.80;;;;;;;;;;5054382;28;21055;-78
2023/01/02 11:25:46;;;;;;;4.67;2.30;;;;;;;;;;5054507;28;20922;-77
2023/01/02 11:28:15;;;;;;;5.00;2.70;;;;;;;;;;5056980;28;20473;-76
2023/01/02 11:30:45;;;;;;;7.40;3.00;;;;;;;;;;5054134;28;20445;-77
2023/01/02 11:33:19;;;;;;;3.50;2.40;;;;;;;;;;5054876;28;20435;-76
2023/01/02 11:35:47;;;;;;;6.50;2.67;;;;;;;;;;5056088;28;20414;-76
2023/01/02 11:38:15;;;;;;;6.23;2.73;;;;;;;;;;5053110;28;20457;-76
2023/01/02 11:40:51;;;;;;;5.50;2.80;;;;;;;;;;5053387;28;20450;-76
2023/01/02 11:46:09;;;;;;;4.83;2.53;;;;;;;;;;5052976;28;20900;-75
2023/01/02 11:48:37;;;;;;;5.77;2.87;;;;;;;;;;5053242;28;20466;-76
2023/01/02 11:51:04;;;;;;;5.10;2.90;;;;;;;;;;5052887;28;20525;-77
2023/01/02 11:53:34;;;;;;;7.40;2.87;;;;;;;;;;5053048;28;20442;-77
2023/01/02 11:56:05;;;;;;;6.77;2.93;;;;;;;;;;5052425;28;20503;-77
2023/01/02 11:58:36;;;;;;;4.97;3.23;;;;;;;;;;5054120;28;20461;-76
2023/01/02 12:01:05;;;;;;;6.20;2.83;;;;;;;;;;5055573;28;20437;-76
2023/01/02 12:03:33;;;;;;;7.10;2.60;;;;;;;;;;5054140;28;20481;-76
2023/01/02 12:06:04;;;;;;;3.43;2.27;;;;;;;;;;5055118;28;20488;-76
2023/01/02 12:08:38;;;;;;;6.97;2.60;;;;;;;;;;5054752;28;20458;-77
2023/01/02 12:11:11;;;;;;;5.40;2.20;;;;;;;;;;5054658;28;20444;-77
2023/01/02 12:13:46;;;;;;;7.43;2.60;;;;;;;;;;5053868;28;20433;-76
2023/01/02 12:16:19;;;;;;;6.57;2.40;;;;;;;;;;5054239;28;20461;-77
2023/01/02 12:18:53;;;;;;;8.10;3.37;;;;;;;;;;5054718;28;20465;-76
2023/01/02 12:21:23;;;;;;;7.50;2.70;;;;;;;;;;5054611;28;20982;-77
2023/01/02 12:24:05;;;;;;;6.63;2.87;;;;;;;;;;5054518;28;20573;-75
2023/01/02 12:26:35;;;;;;;5.80;3.37;;;;;;;;;;5042927;28;20457;-75
2023/01/02 12:29:15;;;;;;;5.80;2.70;;;;;;;;;;5054841;28;20461;-76
2023/01/02 12:31:59;;;;;;;8.73;3.87;;;;;;;;;;5054927;28;20424;-75
2023/01/02 12:34:34;;;;;;;7.33;3.93;;;;;;;;;;5054777;28;20444;-77
2023/01/02 12:37:10;;;;;;;5.17;3.10;;;;;;;;;;5054955;28;20428;-76
2023/01/02 12:39:49;;;;;;;5.57;3.30;;;;;;;;;;5054903;28;20437;-76
2023/01/02 12:42:20;;;;;;;6.03;2.90;;;;;;;;;;5054696;28;20587;-76
2023/01/02 12:44:49;;;;;;;7.10;2.90;;;;;;;;;;5054874;28;20462;-75
2023/01/02 12:47:24;;;;;;;4.23;2.37;;;;;;;;;;5054050;28;20480;-77
2023/01/02 12:49:57;;;;;;;10.90;3.30;;;;;;;;;;5053339;28;20429;-77
2023/01/02 12:52:32;;;;;;;7.53;3.60;;;;;;;;;;5054124;28;20425;-77
2023/01/02 12:55:06;;;;;;;4.90;3.53;;;;;;;;;;5053511;28;20509;-77
2023/01/02 12:57:36;;;;;;;8.30;3.73;;;;;;;;;;5053498;28;20464;-76
2023/01/02 13:00:14;;;;;;;9.30;3.57;;;;;;;;;;5052844;28;20445;-75
2023/01/02 13:02:47;;;;;;;6.77;3.30;;;;;;;;;;5052072;28;21125;-75
2023/01/02 13:05:18;;;;;;;8.13;2.83;;;;;;;;;;5051900;28;20477;-77
2023/01/02 13:07:48;;;;;;;6.20;3.57;;;;;;;;;;5053732;28;20462;-77
2023/01/02 13:10:16;;;;;;;7.90;3.73;;;;;;;;;;5054117;28;20434;-78
2023/01/02 13:12:44;;;;;;;11.73;2.80;;;;;;;;;;5053645;28;20923;-76
2023/01/02 13:15:17;;;;;;;5.90;2.50;;;;;;;;;;5054564;28;20449;-77
2023/01/02 13:17:47;;;;;;;7.70;2.83;;;;;;;;;;5053340;28;20469;-77
2023/01/02 13:20:20;;;;;;;4.97;2.67;;;;;;;;;;5051516;28;20949;-76
2023/01/02 13:22:51;;;;;;;4.60;2.47;;;;;;;;;;5050819;28;20950;-77
2023/01/02 13:25:20;;;;;;;7.53;3.47;;;;;;;;;;5051199;28;20482;-77
2023/01/02 13:27:49;;;;;;;12.03;3.13;;;;;;;;;;5051239;28;20491;-76
2023/01/02 13:30:34;;;;;;;5.67;2.33;;;;;;;;;;5050573;28;20456;-76
2023/01/02 13:33:02;;;;;;;10.40;2.60;;;;;;;;;;5050707;28;20452;-76
2023/01/02 13:35:31;;;;;;;7.73;2.60;;;;;;;;;;5051040;28;20446;-77
2023/01/02 13:37:58;;;;;;;4.87;2.63;;;;;;;;;;5051065;28;20466;-75
2023/01/02 13:40:30;;;;;;;6.40;2.80;;;;;;;;;;5051144;28;20437;-77
2023/01/02 13:43:02;;;;;;;7.13;3.00;;;;;;;;;;5051065;28;20448;-76
2023/01/02 13:45:31;;;;;;;12.73;3.27;;;;;;;;;;5050727;28;20570;-77
2023/01/02 13:47:59;;;;;;;10.40;3.83;;;;;;;;;;5050834;28;20553;-76
2023/01/02 13:50:28;;;;;;;6.50;2.60;;;;;;;;;;5051249;28;20475;-76
2023/01/02 13:53:03;;;;;;;7.27;2.80;;;;;;;;;;5050597;28;20456;-75
2023/01/02 13:55:31;;;;;;;8.07;2.60;;;;;;;;;;5051066;28;20440;-76
2023/01/02 13:58:17;;;;;;;9.37;3.37;;;;;;;;;;5053777;28;20465;-75
2023/01/02 14:00:45;;;;;;;3.67;2.50;;;;;;;;;;5056790;28;20459;-76
2023/01/02 14:03:33;;;;;;;6.33;2.73;;;;;;;;;;5054057;28;20517;-76
2023/01/02 14:06:02;;;;;;;9.00;3.80;;;;;;;;;;5053702;28;20547;-76
2023/01/02 14:08:31;;;;;;;5.10;2.67;;;;;;;;;;5056188;28;20502;-76
2023/01/02 14:11:00;;;;;;;9.20;2.80;;;;;;;;;;5050782;28;20441;-76
2023/01/02 14:13:35;;;;;;;5.90;3.07;;;;;;;;;;5050693;28;20449;-77
2023/01/02 14:16:11;;;;;;;7.27;2.80;;;;;;;;;;5050846;28;20445;-76
2023/01/02 14:18:38;;;;;;;9.57;3.03;;;;;;;;;;5050224;28;20965;-76
2023/01/02 14:21:05;;;;;;;8.87;3.37;;;;;;;;;;5052674;28;20438;-75
2023/01/02 14:23:37;;;;;;;7.63;2.83;;;;;;;;;;5055637;28;20445;-75
2023/01/02 14:26:04;;;;;;;9.80;2.93;;;;;;;;;;5052929;28;20453;-74
2023/01/02 14:28:34;;;;;;;6.40;2.87;;;;;;;;;;5057908;28;20488;-76
2023/01/02 14:31:03;;;;;;;8.83;3.03;;;;;;;;;;5053195;28;20442;-76
2023/01/02 14:33:32;;;;;;;8.00;3.40;;;;;;;;;;5050575;28;20454;-76
2023/01/02 14:36:01;;;;;;;6.33;2.90;;;;;;;;;;5057705;28;20448;-77
2023/01/02 14:38:30;;;;;;;12.10;3.50;;;;;;;;;;5062353;28;20837;-77
2023/01/02 14:43:28;;;;;;;7.30;3.30;;;;;;;;;;5062512;28;20816;-77
2023/01/02 14:43:46;;;;;;;7.17;3.33;;;;;;;;;;5065075;28;20508;-76
2023/01/02 14:46:15;;;;;;;7.80;4.17;;;;;;;;;;5063519;28;20477;-77
2023/01/02 14:48:48;;;;;;;11.10;4.30;;;;;;;;;;5063180;28;20818;-76
2023/01/02 14:51:17;;;;;;;12.57;3.77;;;;;;;;;;5064414;28;20422;-75
2023/01/02 14:53:47;;;;;;;8.07;3.47;;;;;;;;;;5064138;28;20449;-77
2023/01/02 14:56:18;;;;;;;6.70;3.20;;;;;;;;;;5058858;28;21323;-76
2023/01/02 14:58:47;;;;;;;8.97;3.27;;;;;;;;;;5054911;28;20468;-77
2023/01/02 15:01:19;;;;;;;4.30;3.00;;;;;;;;;;5054375;28;21111;-76